createdAt,value
2022-12-02T00:00:51.197Z,0.68
2022-12-02T00:05:57.151Z,0.63
2022-12-02T00:11:28.044Z,0.59
2022-12-02T00:16:30.794Z,0.56
2022-12-02T00:21:33.599Z,0.57
2022-12-02T00:26:36.335Z,0.64
2022-12-02T00:31:39.223Z,0.66
2022-12-02T00:36:41.985Z,0.61
2022-12-02T00:41:44.740Z,0.46
2022-12-02T00:46:47.460Z,0.29
2022-12-02T00:51:50.201Z,0.23
2022-12-02T00:56:52.929Z,0.16
2022-12-02T01:01:55.906Z,0.12
2022-12-02T01:06:59.043Z,0.16
2022-12-02T01:12:01.824Z,0.24
2022-12-02T01:17:04.560Z,0.24
2022-12-02T01:22:07.498Z,0.19
2022-12-02T01:27:10.297Z,0.12
2022-12-02T01:32:13.129Z,0.06
2022-12-02T01:37:17.522Z,0.03
2022-12-02T01:42:20.517Z,0.05
2022-12-02T01:47:26.367Z,0.14
2022-12-02T01:52:29.200Z,0.21
2022-12-02T01:57:32.063Z,0.26
2022-12-02T02:02:38.135Z,0.29
2022-12-02T02:07:43.815Z,0.27
2022-12-02T02:12:48.053Z,0.19
2022-12-02T02:17:57.632Z,0.09
2022-12-02T02:23:06.898Z,0.01
2022-12-02T02:28:09.857Z,-0.04
2022-12-02T02:33:15.716Z,-0.04
2022-12-02T02:38:24.636Z,-0.04
2022-12-02T02:43:29.768Z,-0.06
2022-12-02T02:48:34.587Z,-0.11
2022-12-02T02:53:37.427Z,-0.24
2022-12-02T02:58:40.160Z,-0.34
2022-12-02T03:04:09.665Z,-0.42
2022-12-02T03:09:16.482Z,-0.44
2022-12-02T03:14:22.106Z,-0.45
2022-12-02T03:19:24.901Z,-0.52
2022-12-02T03:24:28.414Z,-0.54
2022-12-02T03:29:32.099Z,-0.56
2022-12-02T03:34:34.866Z,-0.62
2022-12-02T03:39:38.344Z,-0.67
2022-12-02T03:44:42.529Z,-0.66
2022-12-02T03:49:46.713Z,-0.62
2022-12-02T03:54:54.930Z,-0.60
2022-12-02T04:00:01.944Z,-0.62
2022-12-02T04:05:05.162Z,-0.68
2022-12-02T04:10:10.403Z,-0.72
2022-12-02T04:15:13.206Z,-0.72
2022-12-02T04:20:16.065Z,-0.66
2022-12-02T04:25:19.950Z,-0.63
2022-12-02T04:30:22.920Z,-0.63
2022-12-02T04:35:25.681Z,-0.62
2022-12-02T04:40:28.707Z,-0.59
2022-12-02T04:45:31.524Z,-0.56
2022-12-02T04:50:36.405Z,-0.54
2022-12-02T04:55:43.863Z,-0.53
2022-12-02T05:00:46.988Z,-0.53
2022-12-02T05:05:49.959Z,-0.53
2022-12-02T05:10:52.730Z,-0.46
2022-12-02T05:15:55.518Z,-0.37
2022-12-02T05:20:58.479Z,-0.30
2022-12-02T05:26:01.400Z,-0.28
2022-12-02T05:31:04.342Z,-0.30
2022-12-02T05:36:07.457Z,-0.32
2022-12-02T05:41:10.259Z,-0.35
2022-12-02T05:46:20.807Z,-0.40
2022-12-02T05:51:23.712Z,-0.40
2022-12-02T05:56:29.575Z,-0.36
2022-12-02T06:01:36.227Z,-0.35
2022-12-02T06:06:39.056Z,-0.38
2022-12-02T06:11:42.913Z,-0.41
2022-12-02T06:16:52.629Z,-0.47
2022-12-02T06:21:58.781Z,-0.58
2022-12-02T06:27:03.442Z,-0.63
2022-12-02T06:32:27.942Z,-0.65
2022-12-02T06:37:44.615Z,-0.65
2022-12-02T06:42:48.353Z,-0.62
2022-12-02T06:48:00.603Z,-0.65
2022-12-02T06:53:19.755Z,-0.69
2022-12-02T06:58:55.098Z,-0.69
2022-12-02T07:04:02.471Z,-0.68
2022-12-02T07:09:17.826Z,-0.64
2022-12-02T07:14:27.694Z,-0.57
2022-12-02T07:19:45.197Z,-0.53
2022-12-02T07:39:40.824Z,-0.47
2022-12-02T07:44:44.937Z,-0.49
2022-12-02T07:49:48.981Z,-0.56
2022-12-02T07:54:55.674Z,-0.61
2022-12-02T07:59:58.780Z,-0.68
2022-12-02T08:05:03.433Z,-0.72
2022-12-02T08:10:08.231Z,-0.70
2022-12-02T08:15:15.354Z,-0.66
2022-12-02T08:20:22.313Z,-0.67
2022-12-02T08:25:26.487Z,-0.68
2022-12-02T08:30:29.285Z,-0.63
2022-12-02T08:35:32.071Z,-0.57
2022-12-02T08:40:36.341Z,-0.54
2022-12-02T08:45:39.637Z,-0.49
2022-12-02T08:50:43.562Z,-0.50
2022-12-02T08:55:46.900Z,-0.50
2022-12-02T09:00:49.895Z,-0.50
2022-12-02T09:05:52.665Z,-0.47
2022-12-02T09:10:55.796Z,-0.39
2022-12-02T09:16:00.492Z,-0.27
2022-12-02T09:21:03.637Z,-0.15
2022-12-02T09:26:06.567Z,-0.09
2022-12-02T09:31:09.339Z,-0.11
2022-12-02T09:36:12.068Z,-0.09
2022-12-02T09:41:14.909Z,-0.08
2022-12-02T09:46:24.360Z,-0.10
2022-12-02T09:51:29.597Z,-0.10
2022-12-02T09:56:34.148Z,-0.11
2022-12-02T10:01:38.051Z,-0.08
2022-12-02T10:06:42.122Z,-0.01
2022-12-02T10:11:45.623Z,0.07
2022-12-02T10:16:49.052Z,0.12
2022-12-02T10:21:55.966Z,0.11
2022-12-02T10:27:00.491Z,0.10
2022-12-02T10:32:21.210Z,0.05
2022-12-02T10:37:25.879Z,-0.05
2022-12-02T10:42:28.753Z,-0.14
2022-12-02T10:47:31.586Z,-0.13
2022-12-02T10:52:55.936Z,-0.05
2022-12-02T10:57:58.947Z,0.02
2022-12-02T11:03:05.241Z,-0.01
2022-12-02T11:08:22.273Z,-0.04
2022-12-02T11:13:49.754Z,-0.06
2022-12-02T11:19:40.653Z,-0.12
2022-12-02T11:24:44.279Z,-0.11
2022-12-02T11:30:19.693Z,-0.09
2022-12-02T11:36:01.467Z,-0.06
2022-12-02T11:41:04.921Z,0.02
2022-12-02T11:46:12.333Z,0.07
2022-12-02T11:51:52.355Z,0.09
2022-12-02T11:56:59.156Z,0.07
2022-12-02T12:02:18.054Z,0.06
2022-12-02T12:07:21.606Z,0.04
2022-12-02T12:12:24.337Z,-0.01
2022-12-02T12:17:43.685Z,-0.04
2022-12-02T12:22:46.473Z,-0.08
2022-12-02T12:27:49.209Z,-0.13
2022-12-02T12:32:52.417Z,-0.20
2022-12-02T12:37:55.153Z,-0.21
2022-12-02T12:42:58.214Z,-0.15
2022-12-02T12:48:01.115Z,-0.11
2022-12-02T12:53:03.890Z,-0.07
2022-12-02T12:58:07.096Z,-0.06
2022-12-02T13:03:10.125Z,-0.12
2022-12-02T13:08:13.394Z,-0.26
2022-12-02T13:13:18.128Z,-0.37
2022-12-02T13:18:21.101Z,-0.41
2022-12-02T13:23:23.916Z,-0.44
2022-12-02T13:28:26.755Z,-0.40
2022-12-02T13:33:29.596Z,-0.33
2022-12-02T13:38:32.321Z,-0.33
2022-12-02T13:43:35.107Z,-0.37
2022-12-02T13:48:37.841Z,-0.42
2022-12-02T13:53:41.195Z,-0.47
2022-12-02T13:58:44.012Z,-0.52
2022-12-02T14:03:47.073Z,-0.53
2022-12-02T14:08:49.874Z,-0.53
2022-12-02T14:13:52.651Z,-0.51
2022-12-02T14:18:57.544Z,-0.50
2022-12-02T14:24:01.051Z,-0.50
2022-12-02T14:29:04.217Z,-0.46
2022-12-02T14:34:12.572Z,-0.47
2022-12-02T14:39:16.231Z,-0.53
2022-12-02T14:44:18.949Z,-0.61
2022-12-02T14:54:44.809Z,-0.67
2022-12-02T14:59:47.607Z,-0.69
2022-12-02T15:04:50.562Z,-0.68
2022-12-02T15:09:53.582Z,-0.66
2022-12-02T15:15:06.379Z,-0.65
2022-12-02T15:20:18.996Z,-0.68
2022-12-02T15:25:21.760Z,-0.74
2022-12-02T15:30:24.631Z,-0.79
2022-12-02T15:35:27.487Z,-0.83
2022-12-02T15:40:30.223Z,-0.86
2022-12-02T15:45:33.090Z,-0.89
2022-12-02T15:50:35.859Z,-0.92
2022-12-02T15:55:38.802Z,-0.89
2022-12-02T16:00:41.831Z,-0.83
2022-12-02T16:05:44.810Z,-0.79
2022-12-02T16:10:49.450Z,-0.78
2022-12-02T16:15:52.532Z,-0.81
2022-12-02T16:20:55.840Z,-0.88
2022-12-02T16:25:58.886Z,-0.96
2022-12-02T16:31:01.690Z,-1.00
2022-12-02T16:36:04.532Z,-1.03
2022-12-02T16:41:07.614Z,-1.07
2022-12-02T16:46:10.487Z,-1.14
2022-12-02T16:51:13.400Z,-1.20
2022-12-02T16:56:16.203Z,-1.19
2022-12-02T17:01:19.242Z,-1.13
2022-12-02T17:06:22.254Z,-1.13
2022-12-02T17:11:25.282Z,-1.16
2022-12-02T17:16:28.313Z,-1.19
2022-12-02T17:21:31.333Z,-1.23
2022-12-02T17:26:34.072Z,-1.26
2022-12-02T17:31:37.020Z,-1.24
2022-12-02T17:36:42.005Z,-1.17
2022-12-02T17:41:45.493Z,-1.10
2022-12-02T17:46:48.719Z,-1.05
2022-12-02T17:52:18.162Z,-1.05
2022-12-02T17:57:14.269Z,-1.07
2022-12-02T18:02:17.314Z,-1.09
2022-12-02T18:07:21.224Z,-1.13
2022-12-02T18:12:24.139Z,-1.22
2022-12-02T18:17:26.928Z,-1.31
2022-12-02T18:22:29.838Z,-1.32
2022-12-02T18:27:33.035Z,-1.27
2022-12-02T18:32:35.756Z,-1.18
2022-12-02T18:37:38.638Z,-1.11
2022-12-02T18:42:41.385Z,-1.14
2022-12-02T18:47:44.191Z,-1.22
2022-12-02T18:52:46.922Z,-1.31
2022-12-02T18:57:49.714Z,-1.36
2022-12-02T19:02:52.507Z,-1.40
2022-12-02T19:07:55.626Z,-1.44
2022-12-02T19:12:58.418Z,-1.47
2022-12-02T19:18:01.202Z,-1.44
2022-12-02T19:23:03.968Z,-1.39
2022-12-02T19:28:06.720Z,-1.33
2022-12-02T19:33:09.560Z,-1.31
2022-12-02T19:38:15.417Z,-1.34
2022-12-02T19:43:18.632Z,-1.41
2022-12-02T19:48:23.596Z,-1.51
2022-12-02T19:53:26.913Z,-1.59
2022-12-02T19:58:29.694Z,-1.68
2022-12-02T20:03:32.490Z,-1.76
2022-12-02T20:08:35.320Z,-1.77
2022-12-02T20:13:38.227Z,-1.87
2022-12-02T20:18:41.025Z,-2.02
2022-12-02T20:23:43.740Z,-2.14
2022-12-02T20:28:46.523Z,-2.21
2022-12-02T20:33:49.327Z,-2.17
2022-12-02T20:38:52.034Z,-2.15
2022-12-02T20:43:54.799Z,-2.14
2022-12-02T20:48:58.241Z,-2.15
2022-12-02T20:54:00.924Z,-2.17
2022-12-02T20:59:03.676Z,-2.21
2022-12-02T21:04:06.442Z,-2.26
2022-12-02T21:09:09.346Z,-2.29
2022-12-02T21:14:12.095Z,-2.23
2022-12-02T21:19:15.159Z,-2.13
2022-12-02T21:24:17.900Z,-2.07
2022-12-02T21:29:20.816Z,-2.07
2022-12-02T21:34:23.659Z,-2.10
2022-12-02T21:39:26.460Z,-2.14
2022-12-02T21:44:29.300Z,-2.18
2022-12-02T21:49:32.181Z,-2.22
2022-12-02T21:54:34.965Z,-2.17
2022-12-02T21:59:37.700Z,-2.13
2022-12-02T22:04:40.889Z,-2.18
2022-12-02T22:09:47.062Z,-2.27
2022-12-02T22:14:52.746Z,-2.33
2022-12-02T22:19:55.719Z,-2.42
2022-12-02T22:24:58.682Z,-2.47
2022-12-02T22:30:01.638Z,-2.43
2022-12-02T22:35:04.924Z,-2.43
2022-12-02T22:40:09.289Z,-2.47
2022-12-02T22:45:12.067Z,-2.48
2022-12-02T22:50:14.898Z,-2.51
2022-12-02T22:55:17.675Z,-2.50
2022-12-02T23:00:20.687Z,-2.49
2022-12-02T23:05:23.385Z,-2.44
2022-12-02T23:10:26.649Z,-2.35
2022-12-02T23:15:38.509Z,-2.30
2022-12-02T23:20:41.906Z,-2.28
2022-12-02T23:25:44.638Z,-2.29
2022-12-02T23:30:47.360Z,-2.29
2022-12-02T23:35:50.453Z,-2.29
2022-12-02T23:40:53.568Z,-2.33
2022-12-02T23:45:56.395Z,-2.33
2022-12-02T23:50:59.193Z,-2.23
2022-12-02T23:56:01.908Z,-2.13
